KSEG/SEG METAR and TAF weather

Enter ICAO airport designator
Station Type Date Time Source
KSEG METAR 2019/08/21 02:53 UTC NOAA

KSEG 210253Z AUTO 00000KT 10SM CLR 23/21 A3000 RMK AO2 SLP157 T02280211 50000


Station Type Date Time Source
KSEG Decoded METAR 2019/08/21 02:53 UTC NOAA

Station name not available
Aug 20, 2019 - 10:53 PM EDT / 2019.08.21 0253 UTC
Wind: Calm:0
Visibility: 10 mile(s):0
Sky conditions: clear
Temperature: 73.0 F (22.8 C)
Dew Point: 70.0 F (21.1 C)
Relative Humidity: 90%
Pressure (altimeter): 30 in. Hg (1015 hPa)
Pressure tendency: 0.00 inches (0.0 hPa) higher than three hours ago
ob: KSEG 210253Z AUTO 00000KT 10SM CLR 23/21 A3000 RMK AO2 SLP157 T02280211 50000
cycle: 3

Station Type Date Time Source
KSEG TAF UTC NOAA

Error!

Example: see airport list